Time;durP1;ratioP1;P1;durP2;ratioP2;P2;SDS_P1;SDS_P2;PMS_P1;PMS_P2;Temp;Humidity;BMP_temperature;BMP_pressure;BME280_temperature;BME280_humidity;BME280_pressure;Samples;Min_cycle;Max_cycle;Signal;HPM_P1;HPM_P2
2022/09/29 00:02:11;;;;;;;4.65;2.78;;;;;;;;;;4999666;28;20018;-75
2022/09/29 00:04:37;;;;;;;5.80;3.30;;;;;;;;;;5003895;28;20030;-78
2022/09/29 00:07:02;;;;;;;4.53;2.70;;;;;;;;;;5003217;28;20406;-75
2022/09/29 00:09:27;;;;;;;4.97;2.78;;;;;;;;;;5004795;28;20026;-76
2022/09/29 00:11:54;;;;;;;5.60;2.90;;;;;;;;;;5003718;28;20504;-75
2022/09/29 00:14:20;;;;;;;4.68;3.20;;;;;;;;;;5008593;28;20048;-75
2022/09/29 00:16:46;;;;;;;4.65;2.92;;;;;;;;;;5002621;28;20521;-75
2022/09/29 00:19:11;;;;;;;5.40;3.15;;;;;;;;;;5010007;28;20018;-75
2022/09/29 00:21:37;;;;;;;5.35;3.10;;;;;;;;;;5005726;28;20507;-75
2022/09/29 00:24:02;;;;;;;5.35;3.08;;;;;;;;;;5004924;28;20037;-75
2022/09/29 00:26:27;;;;;;;4.88;2.88;;;;;;;;;;4998291;28;20041;-75
2022/09/29 00:28:56;;;;;;;4.68;3.08;;;;;;;;;;5001073;28;20147;-75
2022/09/29 00:31:27;;;;;;;4.90;3.10;;;;;;;;;;5005762;28;20026;-78
2022/09/29 00:33:53;;;;;;;4.80;3.00;;;;;;;;;;5007662;28;20107;-75
2022/09/29 00:36:19;;;;;;;5.68;3.08;;;;;;;;;;5005310;28;20057;-75
2022/09/29 00:38:47;;;;;;;4.13;2.72;;;;;;;;;;5001258;28;20457;-75
2022/09/29 00:41:23;;;;;;;6.53;3.25;;;;;;;;;;5000476;28;20033;-75
2022/09/29 00:43:53;;;;;;;4.40;2.92;;;;;;;;;;5001039;28;20694;-75
2022/09/29 00:46:51;;;;;;;4.60;2.85;;;;;;;;;;5012453;28;20041;-75
2022/09/29 00:49:28;;;;;;;4.85;3.30;;;;;;;;;;5006648;28;20033;-75
2022/09/29 00:52:06;;;;;;;5.60;3.40;;;;;;;;;;5001458;28;20450;-75
2022/09/29 00:54:38;;;;;;;6.25;3.05;;;;;;;;;;5000820;28;20033;-75
2022/09/29 00:57:06;;;;;;;4.60;3.10;;;;;;;;;;5001476;28;20513;-75
2022/09/29 00:59:54;;;;;;;4.47;2.95;;;;;;;;;;5001795;28;20394;-76
2022/09/29 01:02:21;;;;;;;4.70;2.97;;;;;;;;;;5003460;28;20120;-75
2022/09/29 01:04:51;;;;;;;4.30;2.75;;;;;;;;;;5004076;28;20061;-74
2022/09/29 01:07:19;;;;;;;4.63;3.00;;;;;;;;;;4998729;28;20026;-75
2022/09/29 01:09:45;;;;;;;4.90;3.00;;;;;;;;;;5003675;28;20029;-75
2022/09/29 01:12:11;;;;;;;4.72;3.13;;;;;;;;;;4999134;28;20048;-75
2022/09/29 01:14:37;;;;;;;5.18;3.00;;;;;;;;;;5005887;28;20034;-75
2022/09/29 01:17:04;;;;;;;4.93;3.45;;;;;;;;;;4998858;28;20092;-75
2022/09/29 01:19:41;;;;;;;5.88;3.38;;;;;;;;;;5003377;28;20037;-75
2022/09/29 01:22:25;;;;;;;4.88;3.50;;;;;;;;;;5012368;28;20060;-76
2022/09/29 01:25:09;;;;;;;5.38;3.28;;;;;;;;;;4997738;28;20033;-76
2022/09/29 01:27:50;;;;;;;4.85;3.00;;;;;;;;;;4998404;28;20054;-75
2022/09/29 01:30:19;;;;;;;5.38;3.00;;;;;;;;;;5003348;28;20034;-76
2022/09/29 01:33:06;;;;;;;6.03;3.17;;;;;;;;;;4996528;28;20038;-75
2022/09/29 01:36:07;;;;;;;5.50;3.40;;;;;;;;;;5002217;28;20502;-75
2022/09/29 01:38:38;;;;;;;4.80;3.10;;;;;;;;;;5000680;28;20076;-75
2022/09/29 01:41:28;;;;;;;6.15;3.20;;;;;;;;;;5007218;28;20108;-77
2022/09/29 01:44:03;;;;;;;5.25;2.97;;;;;;;;;;4996267;28;20021;-77
2022/09/29 01:46:49;;;;;;;6.28;3.50;;;;;;;;;;5021217;28;20536;-77
2022/09/29 01:49:16;;;;;;;5.25;3.17;;;;;;;;;;5034052;28;20528;-75
2022/09/29 01:51:58;;;;;;;7.32;3.47;;;;;;;;;;4996921;28;20052;-76
2022/09/29 01:54:57;;;;;;;4.90;3.58;;;;;;;;;;5002426;28;20033;-75
2022/09/29 01:57:29;;;;;;;5.82;3.47;;;;;;;;;;5000931;28;20100;-75
2022/09/29 02:00:09;;;;;;;5.20;3.20;;;;;;;;;;5030894;28;20047;-75
2022/09/29 02:02:53;;;;;;;5.75;3.65;;;;;;;;;;5001171;28;20032;-75
2022/09/29 02:05:27;;;;;;;5.53;3.40;;;;;;;;;;5002032;28;20410;-75
2022/09/29 02:07:59;;;;;;;7.32;3.72;;;;;;;;;;5010671;28;20026;-75
2022/09/29 02:10:45;;;;;;;4.85;3.38;;;;;;;;;;4999809;28;20520;-76
2022/09/29 02:13:13;;;;;;;5.50;3.72;;;;;;;;;;5004740;28;20038;-75
2022/09/29 02:15:44;;;;;;;6.80;3.70;;;;;;;;;;5002953;28;20072;-75
2022/09/29 02:18:20;;;;;;;5.45;3.33;;;;;;;;;;5003886;28;20575;-75
2022/09/29 02:20:47;;;;;;;5.82;3.55;;;;;;;;;;5003161;28;20069;-75
2022/09/29 02:23:13;;;;;;;4.80;3.40;;;;;;;;;;5030387;28;20070;-74
2022/09/29 02:25:39;;;;;;;5.43;3.70;;;;;;;;;;5000604;28;20095;-75
2022/09/29 02:28:06;;;;;;;5.82;3.90;;;;;;;;;;4998593;28;20509;-75
2022/09/29 02:30:32;;;;;;;6.43;4.05;;;;;;;;;;5001542;28;20121;-75
2022/09/29 02:32:58;;;;;;;6.10;4.10;;;;;;;;;;5004120;28;20041;-75
2022/09/29 02:35:28;;;;;;;6.60;3.78;;;;;;;;;;4999536;28;20026;-79
2022/09/29 02:38:04;;;;;;;7.97;3.92;;;;;;;;;;5003115;28;20026;-75
2022/09/29 02:40:58;;;;;;;6.07;3.90;;;;;;;;;;5002926;28;20036;-76
2022/09/29 02:43:42;;;;;;;5.63;3.95;;;;;;;;;;5031832;28;20030;-75
2022/09/29 02:46:32;;;;;;;5.40;3.80;;;;;;;;;;5004760;28;20498;-76
2022/09/29 02:49:27;;;;;;;6.57;4.00;;;;;;;;;;5003371;28;20026;-75
2022/09/29 02:52:00;;;;;;;7.05;4.03;;;;;;;;;;5005421;28;20536;-75
2022/09/29 02:54:29;;;;;;;6.95;3.90;;;;;;;;;;5007534;28;20513;-75
2022/09/29 02:57:38;;;;;;;7.30;4.55;;;;;;;;;;5007492;28;20478;-75
2022/09/29 03:00:09;;;;;;;7.25;4.72;;;;;;;;;;5002700;28;20037;-75
2022/09/29 03:02:35;;;;;;;7.55;4.35;;;;;;;;;;5006781;28;20034;-75
2022/09/29 03:05:02;;;;;;;6.07;4.18;;;;;;;;;;5009159;28;20116;-75
2022/09/29 03:07:28;;;;;;;7.47;4.18;;;;;;;;;;5000155;28;20034;-76
2022/09/29 03:09:53;;;;;;;6.22;4.60;;;;;;;;;;5005961;28;20026;-75
2022/09/29 03:12:19;;;;;;;6.50;3.95;;;;;;;;;;5001262;28;20640;-75
2022/09/29 03:14:44;;;;;;;5.97;4.03;;;;;;;;;;5002433;28;20081;-75
2022/09/29 03:17:10;;;;;;;6.32;4.30;;;;;;;;;;5003839;28;20034;-76
2022/09/29 03:19:36;;;;;;;7.13;4.32;;;;;;;;;;5009317;28;20548;-75
2022/09/29 03:22:02;;;;;;;7.75;4.28;;;;;;;;;;5007298;28;20038;-78
2022/09/29 03:24:28;;;;;;;7.82;4.45;;;;;;;;;;5008192;28;20037;-75
2022/09/29 03:26:53;;;;;;;8.20;5.07;;;;;;;;;;5003497;28;20656;-75
2022/09/29 03:29:18;;;;;;;6.45;4.28;;;;;;;;;;5006743;28;20029;-76
2022/09/29 03:31:44;;;;;;;6.88;4.30;;;;;;;;;;5005021;28;20450;-76
2022/09/29 03:34:09;;;;;;;6.47;4.53;;;;;;;;;;5006764;28;20040;-75
2022/09/29 03:36:34;;;;;;;7.43;4.32;;;;;;;;;;5007643;28;20026;-75
2022/09/29 03:39:00;;;;;;;7.22;4.53;;;;;;;;;;5004330;28;20028;-75
2022/09/29 03:41:25;;;;;;;6.70;4.22;;;;;;;;;;5004673;28;20427;-75
2022/09/29 03:43:50;;;;;;;8.40;4.78;;;;;;;;;;5004870;28;20030;-76
2022/09/29 03:46:16;;;;;;;7.32;4.78;;;;;;;;;;5006022;28;20408;-75
2022/09/29 03:48:41;;;;;;;8.60;4.50;;;;;;;;;;5008187;28;20033;-78
2022/09/29 03:51:09;;;;;;;6.60;4.57;;;;;;;;;;5003496;28;20038;-75
2022/09/29 03:53:34;;;;;;;7.57;4.75;;;;;;;;;;5003174;28;20029;-75
2022/09/29 03:56:00;;;;;;;7.78;4.80;;;;;;;;;;5002513;28;20104;-75
2022/09/29 03:58:26;;;;;;;6.55;4.60;;;;;;;;;;5004394;28;20120;-75
2022/09/29 04:00:52;;;;;;;7.07;4.78;;;;;;;;;;4998433;28;20156;-79
2022/09/29 04:03:18;;;;;;;7.07;5.00;;;;;;;;;;4995691;28;20537;-78
2022/09/29 04:05:44;;;;;;;7.50;4.80;;;;;;;;;;4998141;28;20045;-74
2022/09/29 04:08:10;;;;;;;6.82;4.70;;;;;;;;;;5001337;28;20077;-75
2022/09/29 04:10:39;;;;;;;8.18;5.63;;;;;;;;;;4994272;28;20063;-76
2022/09/29 04:13:05;;;;;;;8.23;4.63;;;;;;;;;;4991641;28;20053;-77
2022/09/29 04:15:31;;;;;;;7.25;4.47;;;;;;;;;;5006152;28;20474;-76
2022/09/29 04:17:56;;;;;;;9.18;4.78;;;;;;;;;;5005002;28;20024;-76
2022/09/29 04:20:22;;;;;;;7.93;4.68;;;;;;;;;;5005048;28;20375;-75
2022/09/29 04:22:47;;;;;;;8.20;4.70;;;;;;;;;;5004985;28;20391;-75
2022/09/29 04:25:13;;;;;;;6.50;4.57;;;;;;;;;;5003983;28;20022;-75
2022/09/29 04:27:38;;;;;;;7.78;4.70;;;;;;;;;;5006459;28;20436;-75
2022/09/29 04:30:05;;;;;;;6.75;4.70;;;;;;;;;;5003871;28;20081;-75
2022/09/29 04:32:30;;;;;;;6.78;5.07;;;;;;;;;;5006095;28;20035;-75
2022/09/29 04:34:56;;;;;;;7.25;5.22;;;;;;;;;;5005909;28;20104;-75
2022/09/29 04:37:22;;;;;;;7.57;4.65;;;;;;;;;;4995356;28;20125;-76
2022/09/29 04:39:47;;;;;;;6.95;4.60;;;;;;;;;;5035279;28;20033;-75
2022/09/29 04:42:12;;;;;;;6.93;4.90;;;;;;;;;;5004343;28;20029;-75
2022/09/29 04:44:38;;;;;;;7.60;5.00;;;;;;;;;;5007567;28;20038;-76
2022/09/29 04:47:03;;;;;;;7.22;4.45;;;;;;;;;;5005149;28;20065;-75
2022/09/29 04:49:29;;;;;;;8.50;5.30;;;;;;;;;;5004048;28;20380;-75
2022/09/29 04:51:55;;;;;;;8.00;5.10;;;;;;;;;;5002915;28;20045;-76
2022/09/29 04:54:20;;;;;;;8.40;5.35;;;;;;;;;;4999454;28;20068;-75
2022/09/29 04:56:49;;;;;;;6.78;4.85;;;;;;;;;;5002526;28;20513;-75
2022/09/29 04:59:16;;;;;;;8.93;5.78;;;;;;;;;;5004364;28;20116;-75
2022/09/29 05:01:42;;;;;;;7.90;4.90;;;;;;;;;;5001089;28;20514;-76
2022/09/29 05:04:09;;;;;;;7.32;4.97;;;;;;;;;;5035292;28;20033;-76
2022/09/29 05:06:38;;;;;;;8.20;5.22;;;;;;;;;;5008271;28;20080;-75
2022/09/29 05:09:04;;;;;;;7.45;5.57;;;;;;;;;;4999974;28;20045;-78
2022/09/29 05:11:29;;;;;;;7.97;5.00;;;;;;;;;;5004491;28;20450;-75
2022/09/29 05:13:55;;;;;;;7.13;5.13;;;;;;;;;;5000573;28;20108;-76
2022/09/29 05:16:20;;;;;;;7.43;5.15;;;;;;;;;;5008296;28;20052;-75
2022/09/29 05:18:46;;;;;;;8.60;5.50;;;;;;;;;;5006690;28;20057;-76
2022/09/29 05:21:11;;;;;;;6.72;5.00;;;;;;;;;;5003602;28;20390;-76
2022/09/29 05:23:36;;;;;;;7.38;5.45;;;;;;;;;;5002726;28;20034;-76
2022/09/29 05:26:04;;;;;;;6.93;4.97;;;;;;;;;;5003687;28;20029;-76
2022/09/29 05:28:30;;;;;;;7.28;5.10;;;;;;;;;;5001383;28;20667;-75
2022/09/29 05:31:04;;;;;;;8.07;5.28;;;;;;;;;;5001026;28;20034;-76
2022/09/29 05:33:29;;;;;;;6.80;4.95;;;;;;;;;;5006995;28;20038;-75
2022/09/29 05:35:55;;;;;;;8.15;5.45;;;;;;;;;;5000272;28;20037;-75
2022/09/29 05:38:21;;;;;;;9.32;5.05;;;;;;;;;;5005022;28;20041;-78
2022/09/29 05:40:47;;;;;;;7.82;5.25;;;;;;;;;;5007593;28;20034;-75
2022/09/29 05:43:13;;;;;;;9.10;5.18;;;;;;;;;;5007490;28;20110;-76
2022/09/29 05:45:38;;;;;;;8.05;4.97;;;;;;;;;;5005306;28;20030;-76
2022/09/29 05:48:03;;;;;;;7.68;5.10;;;;;;;;;;5002560;28;20025;-75
2022/09/29 05:50:30;;;;;;;7.13;5.22;;;;;;;;;;5009269;28;20029;-75
2022/09/29 05:52:55;;;;;;;7.82;5.30;;;;;;;;;;5009028;28;20044;-76
2022/09/29 05:55:22;;;;;;;9.32;5.13;;;;;;;;;;5007201;28;20038;-77
2022/09/29 05:57:48;;;;;;;7.25;4.78;;;;;;;;;;5009165;28;20072;-76
2022/09/29 06:00:14;;;;;;;9.85;5.30;;;;;;;;;;5003811;28;20057;-75
2022/09/29 06:02:39;;;;;;;7.30;5.22;;;;;;;;;;5001079;28;20060;-75
2022/09/29 06:05:05;;;;;;;7.93;4.88;;;;;;;;;;5004731;28;20272;-75
2022/09/29 06:07:30;;;;;;;7.22;5.30;;;;;;;;;;5012627;28;20457;-76
2022/09/29 06:09:55;;;;;;;8.50;5.25;;;;;;;;;;5010589;28;20028;-76
2022/09/29 06:12:21;;;;;;;9.75;5.53;;;;;;;;;;5006844;28;20060;-75
2022/09/29 06:14:46;;;;;;;7.82;5.50;;;;;;;;;;5007442;28;20021;-75
2022/09/29 06:17:11;;;;;;;8.57;5.43;;;;;;;;;;5005141;28;20405;-75
2022/09/29 06:19:37;;;;;;;9.65;5.68;;;;;;;;;;5006380;28;20026;-75
2022/09/29 06:22:02;;;;;;;7.03;5.20;;;;;;;;;;5004830;28;20054;-77
2022/09/29 06:24:28;;;;;;;8.60;5.78;;;;;;;;;;5011419;28;20034;-75
2022/09/29 06:26:53;;;;;;;7.35;5.35;;;;;;;;;;5012171;28;20101;-77
2022/09/29 06:29:18;;;;;;;7.55;5.53;;;;;;;;;;5018844;28;20037;-77
2022/09/29 06:31:44;;;;;;;8.10;5.70;;;;;;;;;;5009286;28;20037;-75
2022/09/29 06:34:09;;;;;;;8.65;5.32;;;;;;;;;;5015497;28;20121;-76
2022/09/29 06:39:25;;;;;;;7.13;5.22;;;;;;;;;;5004111;28;20036;-76
2022/09/29 06:41:52;;;;;;;8.35;5.50;;;;;;;;;;5007457;28;20033;-75
2022/09/29 06:44:19;;;;;;;7.68;5.50;;;;;;;;;;5007751;28;20038;-75
2022/09/29 06:46:45;;;;;;;9.02;5.90;;;;;;;;;;5013500;28;20026;-75
2022/09/29 06:49:15;;;;;;;8.95;5.82;;;;;;;;;;5022044;28;20044;-75
2022/09/29 06:51:41;;;;;;;8.73;6.05;;;;;;;;;;5017147;28;20438;-75
2022/09/29 06:54:07;;;;;;;8.05;5.72;;;;;;;;;;5010223;28;20057;-75
2022/09/29 06:56:32;;;;;;;7.93;5.95;;;;;;;;;;5018170;28;20065;-76
2022/09/29 06:58:57;;;;;;;8.13;5.88;;;;;;;;;;5014099;28;20033;-76
2022/09/29 07:01:23;;;;;;;10.70;6.28;;;;;;;;;;5010367;28;20034;-76
2022/09/29 07:03:48;;;;;;;8.73;6.07;;;;;;;;;;5012309;28;20026;-75
2022/09/29 07:06:14;;;;;;;8.70;6.07;;;;;;;;;;5012332;28;20539;-75
2022/09/29 07:08:39;;;;;;;8.68;6.07;;;;;;;;;;5015861;28;20028;-76
2022/09/29 07:11:06;;;;;;;8.70;5.93;;;;;;;;;;5013336;28;20470;-75
2022/09/29 07:13:31;;;;;;;8.48;6.50;;;;;;;;;;5012390;28;20030;-76
2022/09/29 07:16:06;;;;;;;9.07;6.32;;;;;;;;;;5012072;28;20056;-75
2022/09/29 07:18:34;;;;;;;8.10;6.07;;;;;;;;;;5008856;28;20029;-75
2022/09/29 07:20:59;;;;;;;11.93;6.45;;;;;;;;;;5013073;28;20032;-75
2022/09/29 07:23:25;;;;;;;11.25;6.93;;;;;;;;;;5015953;28;20112;-75
2022/09/29 07:25:51;;;;;;;10.00;7.22;;;;;;;;;;5019687;28;20025;-75
2022/09/29 07:28:16;;;;;;;9.82;6.88;;;;;;;;;;5003220;28;20099;-76
2022/09/29 07:30:42;;;;;;;10.68;7.00;;;;;;;;;;5010375;28;20116;-76
2022/09/29 07:33:07;;;;;;;9.80;7.00;;;;;;;;;;5010388;28;20037;-75
2022/09/29 07:35:33;;;;;;;11.35;7.70;;;;;;;;;;5004375;28;20036;-76
2022/09/29 07:37:58;;;;;;;10.25;7.20;;;;;;;;;;5012070;28;20030;-76
2022/09/29 07:40:24;;;;;;;10.43;6.97;;;;;;;;;;5008397;28;20117;-77
2022/09/29 07:42:50;;;;;;;12.30;8.43;;;;;;;;;;5010401;28;20022;-77
2022/09/29 07:45:19;;;;;;;12.20;8.07;;;;;;;;;;5017301;28;20033;-75
2022/09/29 07:47:44;;;;;;;10.75;7.53;;;;;;;;;;5010500;28;20089;-75
2022/09/29 07:50:11;;;;;;;13.43;8.68;;;;;;;;;;5012073;28;20124;-75
2022/09/29 07:52:37;;;;;;;12.77;7.93;;;;;;;;;;5010089;28;20022;-75
2022/09/29 07:55:03;;;;;;;13.13;8.82;;;;;;;;;;5011227;28;20072;-75
2022/09/29 07:57:28;;;;;;;15.30;8.35;;;;;;;;;;5012551;28;20438;-76
2022/09/29 07:59:53;;;;;;;11.70;8.60;;;;;;;;;;5007504;28;20021;-77
2022/09/29 08:02:20;;;;;;;11.73;8.30;;;;;;;;;;5001432;28;20026;-76
2022/09/29 08:04:45;;;;;;;12.88;8.25;;;;;;;;;;5006924;28;20029;-75
2022/09/29 08:07:10;;;;;;;11.45;7.93;;;;;;;;;;5004021;28;20021;-76
2022/09/29 08:09:36;;;;;;;12.23;8.57;;;;;;;;;;5009938;28;20392;-75
2022/09/29 08:12:02;;;;;;;13.15;9.32;;;;;;;;;;5004819;28;20038;-75
2022/09/29 08:14:27;;;;;;;13.93;8.88;;;;;;;;;;5004957;28;20057;-75
2022/09/29 08:16:53;;;;;;;12.30;8.80;;;;;;;;;;5003112;28;21201;-76
2022/09/29 08:19:19;;;;;;;11.77;8.95;;;;;;;;;;5032940;28;20034;-75
2022/09/29 08:21:48;;;;;;;13.25;8.57;;;;;;;;;;5004331;28;20129;-76
2022/09/29 08:24:14;;;;;;;12.23;8.95;;;;;;;;;;5009188;28;20049;-75
2022/09/29 08:26:40;;;;;;;13.05;9.88;;;;;;;;;;5010328;28;20475;-75
2022/09/29 08:29:05;;;;;;;15.88;9.68;;;;;;;;;;5008298;28;20056;-75
2022/09/29 08:31:31;;;;;;;13.55;9.65;;;;;;;;;;5009568;28;20805;-75
2022/09/29 08:34:00;;;;;;;12.93;9.35;;;;;;;;;;5011540;28;20105;-75
2022/09/29 08:36:25;;;;;;;14.13;10.25;;;;;;;;;;5010787;28;20026;-76
2022/09/29 08:38:53;;;;;;;15.68;9.93;;;;;;;;;;5013036;28;20076;-75
2022/09/29 08:41:43;;;;;;;13.70;10.05;;;;;;;;;;5006885;28;20033;-75
2022/09/29 08:44:22;;;;;;;13.02;10.07;;;;;;;;;;5010716;28;20090;-76
2022/09/29 08:46:55;;;;;;;12.18;9.15;;;;;;;;;;5001884;28;20034;-75
2022/09/29 08:49:36;;;;;;;13.75;9.73;;;;;;;;;;5008472;28;20034;-75
2022/09/29 08:52:08;;;;;;;14.93;8.57;;;;;;;;;;5006568;28;20105;-75
2022/09/29 08:54:38;;;;;;;11.88;8.70;;;;;;;;;;5008374;28;20026;-76
2022/09/29 08:57:04;;;;;;;12.75;8.88;;;;;;;;;;5007538;28;20022;-77
2022/09/29 08:59:31;;;;;;;11.30;8.52;;;;;;;;;;5011576;28;20029;-76
2022/09/29 09:02:33;;;;;;;12.23;8.50;;;;;;;;;;5008381;28;20026;-75
2022/09/29 09:05:16;;;;;;;10.73;8.15;;;;;;;;;;5008409;28;20037;-75
2022/09/29 09:07:59;;;;;;;11.35;8.48;;;;;;;;;;5012141;28;20057;-76
2022/09/29 09:10:47;;;;;;;11.18;7.97;;;;;;;;;;5010533;28;20437;-75
2022/09/29 09:13:39;;;;;;;11.55;7.78;;;;;;;;;;5007995;28;20069;-75
2022/09/29 09:16:26;;;;;;;11.13;7.70;;;;;;;;;;5007607;28;20037;-76
2022/09/29 09:19:30;;;;;;;11.52;8.38;;;;;;;;;;5010019;28;20034;-76
2022/09/29 09:22:20;;;;;;;12.02;8.45;;;;;;;;;;5009411;28;20054;-75
2022/09/29 09:24:58;;;;;;;11.85;7.80;;;;;;;;;;5008547;28;20025;-76
2022/09/29 09:27:29;;;;;;;11.00;7.97;;;;;;;;;;5018411;28;20053;-76
2022/09/29 09:30:17;;;;;;;10.68;7.18;;;;;;;;;;5012912;28;20024;-76
2022/09/29 09:32:53;;;;;;;8.73;6.75;;;;;;;;;;5038512;28;20025;-75
2022/09/29 09:35:44;;;;;;;10.30;6.90;;;;;;;;;;5011074;28;20033;-76
2022/09/29 09:38:24;;;;;;;10.43;7.38;;;;;;;;;;4999330;28;20068;-76
2022/09/29 09:40:52;;;;;;;10.07;7.03;;;;;;;;;;5010998;28;20033;-75
2022/09/29 09:43:33;;;;;;;11.95;8.32;;;;;;;;;;5009358;28;20029;-75
2022/09/29 09:46:07;;;;;;;8.38;6.63;;;;;;;;;;5005337;28;20038;-76
2022/09/29 09:48:42;;;;;;;9.13;6.90;;;;;;;;;;5008296;28;20486;-76
2022/09/29 09:51:45;;;;;;;9.77;6.47;;;;;;;;;;5008105;28;20389;-76
2022/09/29 09:54:28;;;;;;;12.27;6.60;;;;;;;;;;5008218;28;20473;-76
2022/09/29 09:56:56;;;;;;;10.27;6.50;;;;;;;;;;5000139;28;20530;-77
2022/09/29 09:59:35;;;;;;;10.65;7.00;;;;;;;;;;5000856;28;20031;-76
2022/09/29 10:02:01;;;;;;;7.95;6.10;;;;;;;;;;5007687;28;20025;-76
2022/09/29 10:04:27;;;;;;;10.07;6.00;;;;;;;;;;5007279;28;20022;-76
2022/09/29 10:06:55;;;;;;;8.82;6.40;;;;;;;;;;5024156;28;20478;-76
2022/09/29 10:09:22;;;;;;;9.07;6.75;;;;;;;;;;5015890;28;20029;-77
2022/09/29 10:11:48;;;;;;;9.15;6.70;;;;;;;;;;5015806;28;20033;-77
2022/09/29 10:14:25;;;;;;;11.60;7.13;;;;;;;;;;5015752;28;20030;-76
2022/09/29 10:17:06;;;;;;;10.30;6.57;;;;;;;;;;5006102;28;20029;-78
2022/09/29 10:19:53;;;;;;;9.93;6.28;;;;;;;;;;5019917;28;20621;-76
2022/09/29 10:22:19;;;;;;;7.95;5.13;;;;;;;;;;5009865;28;20561;-76
2022/09/29 10:24:44;;;;;;;7.97;4.90;;;;;;;;;;5019316;28;20104;-76
2022/09/29 10:27:10;;;;;;;6.90;5.13;;;;;;;;;;5006868;28;20034;-76
2022/09/29 10:29:41;;;;;;;7.82;6.03;;;;;;;;;;5010319;28;20025;-78
2022/09/29 10:32:20;;;;;;;8.50;6.18;;;;;;;;;;5028071;28;20515;-77
2022/09/29 10:34:49;;;;;;;8.43;5.75;;;;;;;;;;5012053;28;20123;-78
2022/09/29 10:37:34;;;;;;;9.20;6.35;;;;;;;;;;5008284;28;20109;-76
2022/09/29 10:40:16;;;;;;;8.48;5.60;;;;;;;;;;5013155;28;20483;-76
2022/09/29 10:42:47;;;;;;;7.43;5.53;;;;;;;;;;5025644;28;20041;-76
2022/09/29 10:45:21;;;;;;;9.77;6.18;;;;;;;;;;5008525;28;20026;-76
2022/09/29 10:47:56;;;;;;;8.48;6.03;;;;;;;;;;5002188;28;20053;-77
2022/09/29 10:50:24;;;;;;;7.15;5.50;;;;;;;;;;5002682;28;20030;-78
2022/09/29 10:52:57;;;;;;;9.10;6.72;;;;;;;;;;5006334;28;20058;-76
2022/09/29 10:55:25;;;;;;;7.75;5.65;;;;;;;;;;5006258;28;20034;-78
2022/09/29 10:57:53;;;;;;;7.88;6.13;;;;;;;;;;5007007;28;20025;-76
2022/09/29 11:00:34;;;;;;;8.15;5.88;;;;;;;;;;5009116;28;20116;-76
2022/09/29 11:03:07;;;;;;;8.63;6.50;;;;;;;;;;5004305;28;20097;-77
2022/09/29 11:05:35;;;;;;;7.70;5.63;;;;;;;;;;5010267;28;20098;-76
2022/09/29 11:08:01;;;;;;;8.23;6.40;;;;;;;;;;5011013;28;20470;-77
2022/09/29 11:10:30;;;;;;;7.72;5.95;;;;;;;;;;5025280;28;20049;-77
2022/09/29 11:12:59;;;;;;;8.32;5.40;;;;;;;;;;5011426;28;20075;-76
2022/09/29 11:15:38;;;;;;;10.52;6.68;;;;;;;;;;5010538;28;20477;-76
2022/09/29 11:18:18;;;;;;;10.05;6.68;;;;;;;;;;5014186;28;20084;-76
2022/09/29 11:20:47;;;;;;;8.15;5.85;;;;;;;;;;5013291;28;20116;-76
2022/09/29 11:23:27;;;;;;;9.25;6.57;;;;;;;;;;5013419;28;20406;-76
2022/09/29 11:26:15;;;;;;;8.63;5.78;;;;;;;;;;5011035;28;20034;-78
2022/09/29 11:29:01;;;;;;;8.82;5.45;;;;;;;;;;5012092;28;20033;-77
2022/09/29 11:31:52;;;;;;;7.30;5.43;;;;;;;;;;5013567;28;20025;-76
2022/09/29 11:34:56;;;;;;;6.80;5.00;;;;;;;;;;5022697;28;20057;-78
2022/09/29 11:37:37;;;;;;;8.50;5.55;;;;;;;;;;5003239;28;20037;-79
2022/09/29 11:40:53;;;;;;;8.70;5.22;;;;;;;;;;5015389;28;20022;-75
2022/09/29 11:43:40;;;;;;;10.48;4.78;;;;;;;;;;4991151;28;20034;-77
2022/09/29 11:46:33;;;;;;;7.05;5.10;;;;;;;;;;5009967;28;20022;-76
2022/09/29 11:49:17;;;;;;;7.53;5.68;;;;;;;;;;5009402;28;20025;-76
2022/09/29 11:51:55;;;;;;;7.97;5.25;;;;;;;;;;5013409;28;20125;-76
2022/09/29 11:54:42;;;;;;;7.93;5.30;;;;;;;;;;5000211;28;20038;-77
2022/09/29 11:57:26;;;;;;;6.53;4.90;;;;;;;;;;5004639;28;20464;-76
2022/09/29 12:00:10;;;;;;;7.30;5.47;;;;;;;;;;5006985;28;20017;-76
2022/09/29 12:02:54;;;;;;;6.72;4.47;;;;;;;;;;5027692;28;20021;-76
2022/09/29 12:05:48;;;;;;;6.35;4.80;;;;;;;;;;5008266;28;20065;-76
2022/09/29 12:08:26;;;;;;;6.25;4.80;;;;;;;;;;5016409;28;20045;-76
2022/09/29 12:11:14;;;;;;;7.05;5.07;;;;;;;;;;5009193;28;20026;-77
2022/09/29 12:13:59;;;;;;;6.80;5.20;;;;;;;;;;5007202;28;20038;-76
2022/09/29 12:16:31;;;;;;;6.55;4.88;;;;;;;;;;5009786;28;20030;-76
2022/09/29 12:19:19;;;;;;;7.25;4.57;;;;;;;;;;5011908;28;20025;-75
2022/09/29 12:21:50;;;;;;;6.00;4.72;;;;;;;;;;5011318;28;20151;-75
2022/09/29 12:24:34;;;;;;;5.95;4.30;;;;;;;;;;5023266;28;20025;-76
2022/09/29 12:27:03;;;;;;;7.95;4.78;;;;;;;;;;5003839;28;20080;-77
2022/09/29 12:29:46;;;;;;;7.43;5.05;;;;;;;;;;4990564;28;20034;-76
2022/09/29 12:32:27;;;;;;;5.40;4.13;;;;;;;;;;5046282;28;20034;-76
2022/09/29 12:35:14;;;;;;;6.70;4.88;;;;;;;;;;5002777;28;20065;-78
2022/09/29 12:38:04;;;;;;;6.13;4.30;;;;;;;;;;5006789;28;20034;-77
2022/09/29 12:40:58;;;;;;;6.32;4.40;;;;;;;;;;5014667;28;20048;-76
2022/09/29 12:43:55;;;;;;;6.30;4.38;;;;;;;;;;5002689;28;20033;-77
2022/09/29 12:46:37;;;;;;;5.15;3.95;;;;;;;;;;5006925;28;20034;-76
2022/09/29 12:49:32;;;;;;;7.33;4.27;;;;;;;;;;5025050;28;20487;-75
2022/09/29 12:51:58;;;;;;;7.03;4.40;;;;;;;;;;5002536;28;20112;-75
2022/09/29 12:54:44;;;;;;;4.70;3.47;;;;;;;;;;5006459;28;20535;-76
2022/09/29 12:57:39;;;;;;;5.10;3.78;;;;;;;;;;5003470;28;20029;-76
2022/09/29 13:00:11;;;;;;;5.93;3.65;;;;;;;;;;4998421;28;20533;-76
2022/09/29 13:02:59;;;;;;;4.28;3.20;;;;;;;;;;5015756;28;20453;-77
2022/09/29 13:05:34;;;;;;;4.88;3.28;;;;;;;;;;5008651;28;20044;-76
2022/09/29 13:08:24;;;;;;;4.30;3.20;;;;;;;;;;5001296;28;20061;-76
2022/09/29 13:11:02;;;;;;;5.75;3.80;;;;;;;;;;5004933;28;20112;-76
2022/09/29 13:13:37;;;;;;;5.18;3.35;;;;;;;;;;5006558;28;20548;-77
2022/09/29 13:16:15;;;;;;;5.50;3.50;;;;;;;;;;5027964;28;20035;-76
2022/09/29 13:18:55;;;;;;;5.57;3.40;;;;;;;;;;5008344;28;20544;-78
2022/09/29 13:21:32;;;;;;;6.28;4.43;;;;;;;;;;5000706;28;20775;-76
2022/09/29 13:24:13;;;;;;;5.88;4.47;;;;;;;;;;5021977;28;20537;-76
2022/09/29 13:27:24;;;;;;;6.90;4.25;;;;;;;;;;5003015;28;20037;-78
2022/09/29 13:29:56;;;;;;;6.35;4.75;;;;;;;;;;5010162;28;20106;-76
2022/09/29 13:32:22;;;;;;;5.68;4.43;;;;;;;;;;5004372;28;20026;-77
2022/09/29 13:34:57;;;;;;;7.03;5.43;;;;;;;;;;5008900;28;20486;-76
2022/09/29 13:37:27;;;;;;;6.47;4.78;;;;;;;;;;5001195;28;20029;-76
2022/09/29 13:40:06;;;;;;;6.78;4.55;;;;;;;;;;5007980;28;20143;-76
2022/09/29 13:42:42;;;;;;;7.15;4.75;;;;;;;;;;5000970;28;20029;-76
2022/09/29 13:45:20;;;;;;;7.03;5.32;;;;;;;;;;5005539;28;20997;-76
2022/09/29 13:47:51;;;;;;;6.85;4.82;;;;;;;;;;5011147;28;20509;-75
2022/09/29 13:50:48;;;;;;;5.80;4.75;;;;;;;;;;5002824;28;20490;-76
2022/09/29 13:53:30;;;;;;;7.70;5.43;;;;;;;;;;4996643;28;20030;-77
2022/09/29 13:56:02;;;;;;;9.07;5.75;;;;;;;;;;5010561;28;20478;-76
2022/09/29 13:58:56;;;;;;;7.82;5.63;;;;;;;;;;5028573;28;21021;-75
2022/09/29 14:01:38;;;;;;;6.18;5.10;;;;;;;;;;5003623;28;20402;-76
2022/09/29 14:04:32;;;;;;;5.65;4.60;;;;;;;;;;5003871;28;20026;-76
2022/09/29 14:07:02;;;;;;;5.18;4.57;;;;;;;;;;5000300;28;20029;-76
2022/09/29 14:09:32;;;;;;;6.03;4.25;;;;;;;;;;5004493;28;20033;-78
2022/09/29 14:12:04;;;;;;;6.60;5.07;;;;;;;;;;5002346;28;20030;-76
2022/09/29 14:14:32;;;;;;;8.05;4.80;;;;;;;;;;4991855;28;20695;-76
2022/09/29 14:17:14;;;;;;;6.90;5.25;;;;;;;;;;5000052;28;20093;-76
2022/09/29 14:19:54;;;;;;;6.75;5.10;;;;;;;;;;5008961;28;20038;-76
2022/09/29 14:22:29;;;;;;;6.22;4.30;;;;;;;;;;5002428;28;20132;-76
2022/09/29 14:25:15;;;;;;;6.20;4.47;;;;;;;;;;5003646;28;20053;-77
2022/09/29 14:28:00;;;;;;;5.70;4.55;;;;;;;;;;5002063;28;20061;-76
2022/09/29 14:30:34;;;;;;;4.80;4.10;;;;;;;;;;5005718;28;20042;-76
2022/09/29 14:33:11;;;;;;;6.22;4.10;;;;;;;;;;5006193;28;20045;-76
2022/09/29 14:36:02;;;;;;;6.75;4.00;;;;;;;;;;5009188;28;20030;-75
2022/09/29 14:38:42;;;;;;;4.15;3.10;;;;;;;;;;5001761;28;20049;-77
2022/09/29 14:41:09;;;;;;;5.10;4.10;;;;;;;;;;5003740;28;20029;-76
2022/09/29 14:43:42;;;;;;;4.93;3.75;;;;;;;;;;5003587;28;20068;-76
2022/09/29 14:52:34;;;;;;;3.60;2.78;;;;;;;;;;5004497;28;20041;-77
2022/09/29 14:55:17;;;;;;;4.30;3.20;;;;;;;;;;5009978;28;20397;-76
2022/09/29 14:58:02;;;;;;;4.40;3.17;;;;;;;;;;5031377;28;20026;-76
2022/09/29 15:00:59;;;;;;;4.72;3.05;;;;;;;;;;5006133;28;20160;-78
2022/09/29 15:03:33;;;;;;;5.03;2.75;;;;;;;;;;5000236;28;20040;-76
2022/09/29 15:06:12;;;;;;;4.45;2.88;;;;;;;;;;5019532;28;20449;-76
2022/09/29 15:08:39;;;;;;;3.92;2.72;;;;;;;;;;5017094;28;20030;-76
2022/09/29 15:11:29;;;;;;;3.38;2.50;;;;;;;;;;4997942;28;20144;-76
2022/09/29 15:13:56;;;;;;;3.88;2.97;;;;;;;;;;5006685;28;20619;-77
2022/09/29 15:16:30;;;;;;;4.40;2.78;;;;;;;;;;4995009;28;20061;-76
2022/09/29 15:18:56;;;;;;;3.53;2.72;;;;;;;;;;5009357;28;20040;-75
2022/09/29 15:21:48;;;;;;;4.50;3.08;;;;;;;;;;5003861;28;20043;-75
2022/09/29 15:24:39;;;;;;;4.80;3.85;;;;;;;;;;5008679;28;20027;-76
2022/09/29 15:27:12;;;;;;;5.18;3.72;;;;;;;;;;4997711;28;20026;-76